Terminal Aerodrome Forecast
Issued by NWS Cleveland, OH

Home | Current Version | Previous Version | Text Only | Print | Product List | Glossary Off
Versions: 1 2 3 4 5 6 7 8 9 10 11 12 13 14 15 16 17 18

936
FTUS41 KCLE 230156 AAA
TAFYNG
TAF AMD
KYNG 230156Z 2302/2324 22006KT P6SM OVC035
     FM230400 20008KT P6SM OVC025
      TEMPO 2304/2308 5SM BR OVC012
     FM230800 20008KT 4SM BR OVC010
      TEMPO 2308/2312 2SM BR OVC006
     FM231200 22010KT 4SM BR OVC006
     FM231600 22010KT 6SM HZ OVC012
     FM232000 26008KT P6SM OVC020=

USA.gov is the U.S. government's official web portal to all federal, state and local government web resources and services.